x

Geneva On The Lake, Oh (gelo1) Weather Station

1:20am - Sat 26th Jul 2014 All times are CDT. -5 hours from GMT.

  • Wind
    6mph, 9mph gusts
  • Air Temp 65°f
  • Sea Pressure 1015.9mb
  • Geneva On The Lake, Oh
  • Geneva On The Lake, Oh

More Historic Weather Station data

Upgrade to MSW Pro to gain access to the past 30 days of data for over 8000 Wavebouys and Weather Stations around the globe.

Join Pro

Comparision Forecast

View Surf forecast
   
Sat 07/26 1:20am 6 9 mph 1015.9mb 65f
1:10am 5 8 mph 1016.3mb 65f
12:20am 6 10 mph 1016.6mb 65f
12:10am 6 9 mph 1016.6mb 65f
Fri 07/25 11:20pm 3 7 mph 1016.3mb 65f
11:10pm 5 7 mph 1015.9mb 65f
10:20pm 5 8 mph 1016.3mb 65f
10:10pm 5 7 mph 1016.3mb 65f
9:20pm 3 6 mph 1016.6mb 66f
9:10pm 3 6 mph 1016.6mb 66f
8:20pm 5 6 mph 1016.3mb 67f
8:10pm 5 6 mph 1016.3mb 68f
7:20pm 1 3 mph 1016.6mb 69f
7:10pm 2 3 mph 1016.6mb 69f
6:20pm 6 9 mph 1016.3mb 70f
6:10pm 7 9 mph 1016.3mb 70f
5:20pm 6 8 mph 1016.6mb 70f
5:10pm 7 9 mph 1016.9mb 70f
4:20pm 7 8 mph 1016.9mb 70f
4:10pm 6 8 mph 1016.9mb 70f
3:20pm 7 9 mph 1017.3mb 70f
3:10pm 8 10 mph 1017.6mb 70f
2:20pm 10 11 mph 1017.6mb 69f
2:10pm 9 11 mph 1017.6mb 69f
1:20pm 13 16 mph 1018.3mb 69f
1:10pm 15 17 mph 1018.6mb 69f
12:20pm 14 16 mph 1018.6mb 69f
12:10pm 11 16 mph 1018.6mb 69f
11:20am 6 8 mph 1019mb 69f
11:10am 6 8 mph 1018.6mb 69f
10:20am 8 11 mph 1019.6mb 68f
10:10am 8 11 mph 1020mb 68f
9:20am 10 11 mph 1020.3mb 68f
9:10am 8 10 mph 1020mb 67f
8:20am 3 7 mph 1019.3mb 66f
8:10am 3 7 mph 1019.3mb 66f
7:20am 5 8 mph 1019.6mb 62f
7:10am 7 10 mph 1020mb 62f
6:20am 7 9 mph 1019.6mb 59f
6:10am 6 9 mph 1019.6mb 59f
5:20am 6 8 mph 1019.3mb 58f
5:10am 6 9 mph 1019.3mb 57f
4:20am 8 10 mph 1018.3mb 57f
4:10am 8 10 mph 1018.3mb 56f
3:20am 8 9 mph 1017.9mb 56f
3:10am 8 10 mph 1017.9mb 56f
2:20am 6 8 mph 1017.9mb 56f
2:10am 6 8 mph 1017.9mb 56f
1:20am 5 7 mph 1018.3mb 56f
1:10am 5 6 mph 1018.3mb 57f
12:20am 3 7 mph 1018.3mb 64f
12:10am 7 10 mph 1018.3mb 68f
Thu 07/24 11:20pm 10 13 mph 1018.6mb 69f
11:10pm 9 11 mph 1018.6mb 69f
10:20pm 13 15 mph 1018.6mb 69f
10:10pm 9 13 mph 1018.6mb 69f
9:20pm 3 6 mph 1018.6mb 62f
9:10pm 2 3 mph 1018.6mb 63f
8:20pm 1 5 mph 1017.9mb 64f
8:10pm 1 2 mph 1017.9mb 65f
7:20pm 1 2 mph 1017.3mb 69f
7:10pm  -  1 mph 1017.3mb 70f
6:20pm  -  2 mph 1017.3mb 72f
6:10pm 2 3 mph 1017.3mb 71f
5:20pm 2 3 mph 1017.6mb 70f
5:10pm 2 3 mph 1017.6mb 69f
4:20pm 3 5 mph 1018.3mb 68f
4:10pm 2 6 mph 1018.3mb 68f
3:20pm 5 8 mph 1018.6mb 67f
3:10pm 7 10 mph 1018.6mb 67f
2:20pm 7 10 mph 1018.6mb 67f
2:10pm 9 13 mph 1018.6mb 66f
1:20pm 11 14 mph 1019mb 66f
1:10pm 11 15 mph 1019.3mb 66f
11:20am 16 21 mph 1019.3mb 66f
11:10am 17 21 mph 1019.3mb 66f
10:20am 18 23 mph 1019.3mb 65f
10:10am 17 21 mph 1019mb 66f
9:20am 17 22 mph 1018.6mb 66f
9:10am 18 22 mph 1018.6mb 66f
8:20am 15 20 mph 1018.6mb 66f
8:10am 15 18 mph 1018.3mb 66f
7:20am 14 18 mph 1018.3mb 66f
7:10am 14 18 mph 1018.3mb 66f
6:20am 14 17 mph 1017.6mb 66f
6:10am 14 17 mph 1017.6mb 66f
5:20am 11 15 mph 1017.6mb 66f
5:10am 13 17 mph 1017.3mb 66f
4:20am 15 17 mph 1017.3mb 66f
4:10am 14 17 mph 1017.3mb 66f
3:20am 14 17 mph 1016.9mb 66f
3:10am 13 18 mph 1016.9mb 67f
2:20am 13 17 mph 1016.9mb 66f
2:10am 15 18 mph 1016.9mb 66f
1:20am 15 20 mph 1016.9mb 66f
1:10am 17 21 mph 1017.3mb 66f
12:20am 16 22 mph 1017.3mb 67f
12:10am 16 21 mph 1017.3mb 67f
Wed 07/23 11:20pm 20 23 mph 1017.6mb 67f
11:10pm 20 23 mph 1017.3mb 67f
10:20pm 21 24 mph 1017.3mb 68f
10:10pm 21 24 mph 1017.3mb 68f
9:20pm 18 24 mph 1017.6mb 68f
9:10pm 18 22 mph 1017.6mb 67f
8:20pm 22 24 mph 1016.9mb 68f
7:20pm 18 22 mph 1016.6mb 68f
7:10pm 18 24 mph 1016.6mb 68f
5:20pm 17 23 mph 1016.3mb 67f
5:10pm 18 21 mph 1015.9mb 67f
4:20pm 17 20 mph 1016.3mb 68f
4:10pm 17 21 mph 1016.3mb 68f
3:20pm 16 20 mph 1016.3mb 68f
3:10pm 16 20 mph 1016.3mb 68f
2:20pm 16 18 mph 1016.9mb 68f
2:10pm 15 17 mph 1016.9mb 68f
1:20pm 3 8 mph 1017.3mb 65f
1:10pm 8 11 mph 1016.9mb 65f
12:20pm 14 17 mph 1016.6mb 66f
12:10pm 15 21 mph 1016.3mb 67f
11:20am 16 18 mph 1015.6mb 67f
11:10am 15 17 mph 1015.6mb 67f
10:20am 13 16 mph 1014.9mb 69f
10:10am 13 15 mph 1014.9mb 69f
9:20am 17 18 mph 1014.6mb 70f
9:10am 17 20 mph 1014.6mb 71f
8:20am 13 17 mph 1014.6mb 74f
8:10am 10 17 mph 1014.6mb 74f
7:20am 9 14 mph 1014.2mb 73f
7:10am 13 17 mph 1014.2mb 73f
6:20am 5 9 mph 1013.5mb 74f
6:10am 6 7 mph 1013.5mb 73f
5:20am 5 7 mph 1014.2mb 75f
5:10am 6 9 mph 1014.2mb 76f
4:20am 14 24 mph 1014.2mb 78f
4:10am 10 15 mph 1013.9mb 77f
3:20am 6 9 mph 1013.9mb 74f
3:10am 6 8 mph 1013.9mb 74f
2:20am 6 10 mph 1013.9mb 75f
2:10am 5 9 mph 1013.9mb 75f
1:20am 5 9 mph 1014.9mb 76f
1:10am 6 9 mph 1014.6mb 76f
12:20am 6 8 mph 1015.2mb 77f
12:10am 6 9 mph 1015.2mb 77f
Tue 07/22 11:20pm 6 10 mph 1015.2mb 77f
11:10pm 5 8 mph 1015.2mb 76f
10:20pm 5 8 mph 1015.2mb 77f
10:10pm 6 9 mph 1015.2mb 77f
9:20pm 3 7 mph 1015.2mb 76f
9:10pm 3 7 mph 1015.6mb 77f
8:20pm 3 7 mph 1015.6mb 78f
8:10pm 7 8 mph 1015.2mb 78f
7:20pm 5
mph
1015.6mb 80f
7:10pm 3
mph
1015.9mb 81f
6:20pm  -  mph 1016.3mb 87f
6:10pm  -  mph 1016.3mb 88f
5:20pm  -  mph 1016.6mb 84f
5:10pm  -  2 mph 1016.6mb 83f
4:20pm 2
mph
1016.9mb 80f
4:10pm  -  2 mph 1016.9mb 80f
3:20pm 3
mph
1016.9mb 78f
3:10pm 3 5 mph 1017.3mb 78f
2:20pm 5
mph
1017.6mb 78f
2:10pm 3 5 mph 1017.6mb 78f
1:20pm 5 6 mph 1017.9mb 77f
1:10pm 5
mph
1018.3mb 77f
12:20pm 3 5 mph 1018.6mb 76f
12:10pm 3 5 mph 1019mb 76f
11:20am 3 5 mph 1019.3mb 75f
11:10am 3 5 mph 1019.3mb 75f
10:20am 2 5 mph 1020mb 75f
10:10am 5
mph
1020mb 74f
9:40am 2 15 mph 1020.3mb 74f
9:20am 5 7 mph 1020.3mb 74f
9:10am 6 7 mph 1020.3mb 74f
8:20am 2
mph
1020.3mb 72f
8:10am  -  1 mph 1020.7mb 72f